Time;durP1;ratioP1;P1;durP2;ratioP2;P2;SDS_P1;SDS_P2;PMS_P1;PMS_P2;Temp;Humidity;BMP_temperature;BMP_pressure;BME280_temperature;BME280_humidity;BME280_pressure;Samples;Min_cycle;Max_cycle;Signal;HPM_P1;HPM_P2
2023/05/28 00:01:08;;;;;;;7.43;2.50;;;;;;;14.18;73.94;98889.59;4485752;31;20198;-66
2023/05/28 00:03:35;;;;;;;7.03;2.60;;;;;;;14.17;73.31;98882.66;4486032;31;20097;-66
2023/05/28 00:06:03;;;;;;;8.43;3.30;;;;;;;14.15;72.81;98879.38;4485627;31;20521;-66
2023/05/28 00:08:31;;;;;;;5.85;2.75;;;;;;;14.16;72.46;98881.03;4485862;31;20442;-66
2023/05/28 00:11:01;;;;;;;11.20;3.20;;;;;;;14.09;72.15;98880.81;4485700;32;20126;-66
2023/05/28 00:13:29;;;;;;;8.07;2.78;;;;;;;14.04;72.42;98877.03;4475078;32;20536;-66
2023/05/28 00:15:56;;;;;;;10.73;3.28;;;;;;;14.05;71.32;98878.66;4478279;32;20132;-66
2023/05/28 00:18:24;;;;;;;9.38;2.80;;;;;;;13.98;71.21;98876.66;4484543;32;20104;-66
2023/05/28 00:20:52;;;;;;;5.50;2.72;;;;;;;13.98;71.21;98879.28;4485654;32;20110;-66
2023/05/28 00:23:19;;;;;;;5.78;2.78;;;;;;;13.90;71.55;98875.78;4485770;32;20551;-66
2023/05/28 00:25:46;;;;;;;7.80;2.83;;;;;;;13.81;71.54;98880.19;4485666;32;20115;-66
2023/05/28 00:28:13;;;;;;;9.02;3.00;;;;;;;13.80;71.23;98881.16;4484547;32;20576;-66
2023/05/28 00:30:40;;;;;;;10.05;2.67;;;;;;;13.79;70.43;98875.06;4485502;32;20173;-66
2023/05/28 00:33:08;;;;;;;6.35;2.75;;;;;;;13.79;70.41;98871.59;4486059;32;20200;-66
2023/05/28 00:35:36;;;;;;;9.52;3.30;;;;;;;13.69;70.95;98868.25;4485515;31;20122;-66
2023/05/28 00:38:03;;;;;;;6.32;3.10;;;;;;;13.69;70.59;98863.81;4485743;31;20583;-66
2023/05/28 00:40:31;;;;;;;7.35;2.85;;;;;;;13.65;70.61;98860.66;4485634;32;20134;-66
2023/05/28 00:42:58;;;;;;;7.65;2.75;;;;;;;13.60;70.68;98857.66;4485855;32;20163;-67
2023/05/28 00:45:27;;;;;;;9.02;3.33;;;;;;;13.60;70.65;98864.75;4485723;31;20808;-66
2023/05/28 00:47:54;;;;;;;5.55;2.40;;;;;;;13.67;69.21;98852.59;4485534;31;20183;-66
2023/05/28 00:50:22;;;;;;;6.03;2.65;;;;;;;13.68;68.94;98851.63;4485459;31;20080;-66
2023/05/28 00:52:51;;;;;;;7.75;3.35;;;;;;;13.66;68.99;98849.16;4484371;32;20157;-66
2023/05/28 00:55:19;;;;;;;7.12;2.50;;;;;;;13.61;69.57;98853.22;4484009;32;20135;-66
2023/05/28 00:57:48;;;;;;;10.75;3.35;;;;;;;13.61;69.32;98856.69;4483407;32;20168;-66
2023/05/28 01:00:16;;;;;;;6.90;3.05;;;;;;;13.55;69.51;98846.78;4485401;31;20092;-66
2023/05/28 01:02:44;;;;;;;7.90;2.92;;;;;;;13.50;69.65;98843.78;4485502;31;20092;-66
2023/05/28 01:05:11;;;;;;;9.07;3.10;;;;;;;13.49;69.28;98842.13;4485422;31;20119;-66
2023/05/28 01:07:38;;;;;;;7.85;2.95;;;;;;;13.46;69.46;98837.19;4485257;31;20100;-66
2023/05/28 01:10:06;;;;;;;8.20;3.05;;;;;;;13.42;69.51;98838.47;4485444;32;20598;-66
2023/05/28 01:12:35;;;;;;;11.12;2.67;;;;;;;13.46;68.71;98831.94;4480184;31;20105;-66
2023/05/28 01:15:02;;;;;;;6.00;3.15;;;;;;;13.37;69.14;98835.44;4472108;32;20139;-66
2023/05/28 01:17:30;;;;;;;7.55;2.40;;;;;;;13.31;69.49;98832.44;4485433;31;20546;-66
2023/05/28 01:20:05;;;;;;;7.93;2.55;;;;;;;13.31;69.48;98832.44;4485313;31;20140;-66
2023/05/28 01:22:37;;;;;;;9.68;2.50;;;;;;;13.29;69.18;98828.28;4485436;31;20144;-66
2023/05/28 01:25:09;;;;;;;6.95;2.70;;;;;;;13.23;68.68;98834.16;4485609;31;20156;-66
2023/05/28 01:27:39;;;;;;;6.18;2.40;;;;;;;13.26;68.79;98821.56;4485333;31;20453;-66
2023/05/28 01:30:11;;;;;;;6.00;2.80;;;;;;;13.21;68.26;98821.16;4485253;31;20107;-66
2023/05/28 01:32:39;;;;;;;7.70;2.85;;;;;;;13.18;68.54;98818.84;4484185;32;20107;-66
2023/05/28 01:35:08;;;;;;;6.20;2.42;;;;;;;13.17;67.87;98825.09;4485348;31;20096;-66
2023/05/28 01:37:48;;;;;;;8.60;2.50;;;;;;;13.12;67.74;98822.91;4484015;32;20120;-66
2023/05/28 01:40:17;;;;;;;5.15;2.55;;;;;;;13.07;68.43;98822.53;4485308;31;20115;-66
2023/05/28 01:42:46;;;;;;;7.07;2.55;;;;;;;13.08;68.37;98825.97;4485269;31;20104;-66
2023/05/28 01:45:14;;;;;;;11.27;3.10;;;;;;;12.96;68.40;98822.78;4485451;31;20116;-66
2023/05/28 01:47:42;;;;;;;6.05;2.92;;;;;;;12.99;68.10;98821.63;4483908;32;20143;-65
2023/05/28 01:50:10;;;;;;;6.68;2.58;;;;;;;12.98;68.03;98817.38;4485215;32;20118;-66
2023/05/28 01:52:38;;;;;;;8.05;2.90;;;;;;;12.95;68.38;98831.66;4484053;32;20141;-66
2023/05/28 01:55:08;;;;;;;10.25;2.45;;;;;;;12.95;68.09;98821.94;4485460;32;20112;-66
2023/05/28 01:57:35;;;;;;;11.57;3.33;;;;;;;12.92;68.35;98819.63;4484971;31;20114;-66
2023/05/28 02:00:03;;;;;;;9.80;2.55;;;;;;;12.87;68.54;98826.28;4484920;31;20108;-66
2023/05/28 02:02:42;;;;;;;6.28;2.65;;;;;;;12.84;68.86;98814.28;4485068;31;20088;-66
2023/05/28 02:05:10;;;;;;;9.45;2.72;;;;;;;12.78;69.01;98822.78;4485285;31;20568;-66
2023/05/28 02:07:37;;;;;;;4.50;2.35;;;;;;;12.74;69.42;98822.25;4484978;31;20430;-66
2023/05/28 02:10:05;;;;;;;7.03;2.47;;;;;;;12.75;69.23;98818.66;4484896;32;20096;-65
2023/05/28 02:12:32;;;;;;;6.65;3.12;;;;;;;12.72;69.21;98820.75;4479936;31;20435;-66
2023/05/28 02:15:00;;;;;;;10.05;3.03;;;;;;;12.70;69.71;98814.81;4471587;32;20465;-66
2023/05/28 02:17:27;;;;;;;7.35;2.67;;;;;;;12.69;69.84;98810.53;4484813;32;20112;-66
2023/05/28 02:19:55;;;;;;;11.20;2.80;;;;;;;12.62;70.34;98812.09;4485091;32;20096;-66
2023/05/28 02:22:26;;;;;;;6.12;2.40;;;;;;;12.56;70.96;98816.16;4485132;31;20088;-65
2023/05/28 02:24:54;;;;;;;5.35;2.40;;;;;;;12.54;71.32;98821.56;4484828;31;20106;-65
2023/05/28 02:27:21;;;;;;;4.68;2.45;;;;;;;12.50;71.44;98816.75;4484699;31;20169;-66
2023/05/28 02:29:48;;;;;;;5.20;2.60;;;;;;;12.49;71.54;98812.47;4484797;32;20123;-66
2023/05/28 02:32:16;;;;;;;5.47;2.58;;;;;;;12.42;72.16;98814.88;4485065;32;20092;-66
2023/05/28 02:34:43;;;;;;;6.62;2.53;;;;;;;12.34;72.63;98809.50;4484714;32;20611;-66
2023/05/28 02:37:11;;;;;;;8.65;2.87;;;;;;;12.33;72.97;98816.56;4484549;31;20088;-66
2023/05/28 02:39:38;;;;;;;9.60;2.53;;;;;;;12.33;73.47;98813.13;4484983;32;20100;-65
2023/05/28 02:42:05;;;;;;;7.43;2.53;;;;;;;12.27;73.85;98814.53;4484880;32;20127;-65
2023/05/28 02:44:33;;;;;;;8.35;2.72;;;;;;;12.24;74.44;98818.25;4483446;32;20124;-66
2023/05/28 02:47:00;;;;;;;7.87;3.00;;;;;;;12.23;74.74;98818.41;4484720;32;20151;-66
2023/05/28 02:49:27;;;;;;;5.20;2.37;;;;;;;12.18;75.12;98821.47;4484408;31;20157;-66
2023/05/28 02:51:54;;;;;;;4.12;2.60;;;;;;;12.16;75.69;98818.19;4484424;32;20088;-66
2023/05/28 02:54:22;;;;;;;6.50;2.75;;;;;;;12.17;75.76;98819.84;4484817;32;20164;-66
2023/05/28 02:56:49;;;;;;;6.37;2.85;;;;;;;12.15;75.93;98807.81;4484681;32;20096;-66
2023/05/28 02:59:16;;;;;;;6.57;2.67;;;;;;;12.12;75.99;98816.00;4484469;32;20126;-66
2023/05/28 03:01:46;;;;;;;4.80;2.53;;;;;;;12.14;76.13;98811.41;4484487;32;20100;-66
2023/05/28 03:04:13;;;;;;;9.15;2.55;;;;;;;12.10;76.54;98817.91;4484665;32;20154;-66
2023/05/28 03:06:41;;;;;;;4.68;2.30;;;;;;;12.09;76.58;98814.47;4484213;32;20100;-66
2023/05/28 03:09:08;;;;;;;6.37;2.33;;;;;;;12.17;76.31;98811.13;4484328;32;20096;-66
2023/05/28 03:11:37;;;;;;;3.97;2.17;;;;;;;12.17;76.55;98811.97;4484483;32;20497;-66
2023/05/28 03:14:04;;;;;;;6.78;2.92;;;;;;;12.20;76.54;98811.66;4469482;32;20151;-65
2023/05/28 03:16:32;;;;;;;5.55;2.62;;;;;;;12.21;76.71;98815.12;4455424;32;20486;-66
2023/05/28 03:19:00;;;;;;;4.50;2.08;;;;;;;12.21;76.67;98815.12;4452832;32;20139;-65
2023/05/28 03:21:29;;;;;;;8.55;2.25;;;;;;;12.21;76.78;98815.94;4454627;32;20538;-66
2023/05/28 03:23:56;;;;;;;6.68;2.83;;;;;;;12.24;77.09;98807.75;4455064;32;20101;-66
2023/05/28 03:26:24;;;;;;;7.37;2.47;;;;;;;12.35;76.72;98809.34;4455135;32;20101;-66
2023/05/28 03:28:51;;;;;;;4.95;2.47;;;;;;;12.39;76.58;98807.28;4454990;32;20115;-65
2023/05/28 03:31:20;;;;;;;5.70;2.42;;;;;;;12.50;76.71;98814.13;4455143;32;20166;-66
2023/05/28 03:33:47;;;;;;;4.90;2.40;;;;;;;12.54;76.52;98813.66;4454701;32;20157;-66
2023/05/28 03:36:14;;;;;;;8.75;2.87;;;;;;;12.57;76.43;98809.94;4454818;32;20183;-66
2023/05/28 03:38:41;;;;;;;8.88;2.60;;;;;;;12.62;76.94;98812.94;4454581;32;20176;-66
2023/05/28 03:41:09;;;;;;;5.28;2.30;;;;;;;12.70;76.35;98809.53;4454941;32;20092;-66
2023/05/28 03:43:36;;;;;;;6.60;2.83;;;;;;;12.80;75.87;98810.31;4454861;32;20489;-66
2023/05/28 03:46:03;;;;;;;4.10;2.40;;;;;;;12.81;76.23;98817.22;4455080;32;20128;-66
2023/05/28 03:48:30;;;;;;;7.25;2.30;;;;;;;12.86;76.12;98809.69;4454394;32;20561;-66
2023/05/28 03:50:58;;;;;;;9.23;2.95;;;;;;;12.92;76.47;98809.09;4455155;32;20093;-66
2023/05/28 03:53:26;;;;;;;11.48;2.17;;;;;;;12.94;75.98;98807.16;4453700;32;20127;-66
2023/05/28 03:55:53;;;;;;;7.95;2.50;;;;;;;13.01;75.67;98807.38;4455014;32;20127;-65
2023/05/28 03:58:23;;;;;;;6.32;2.72;;;;;;;13.08;75.75;98812.84;4454743;32;20093;-66
2023/05/28 04:00:50;;;;;;;6.60;2.78;;;;;;;13.10;76.28;98810.91;4454805;32;20161;-66
2023/05/28 04:03:20;;;;;;;5.35;2.20;;;;;;;13.15;76.66;98821.78;4454683;32;20093;-66
2023/05/28 04:05:47;;;;;;;9.15;2.80;;;;;;;13.18;76.69;98808.31;4455014;32;20097;-66
2023/05/28 04:08:14;;;;;;;5.78;2.40;;;;;;;13.20;77.29;98809.00;4453320;32;20521;-66
2023/05/28 04:10:42;;;;;;;5.87;2.40;;;;;;;13.27;76.83;98817.09;4453663;32;20480;-66
2023/05/28 04:13:09;;;;;;;5.85;2.80;;;;;;;13.34;77.25;98817.34;4463465;32;20146;-66
2023/05/28 04:15:37;;;;;;;6.32;2.50;;;;;;;13.43;76.71;98811.16;4476783;32;20164;-66
2023/05/28 04:18:05;;;;;;;7.65;2.95;;;;;;;13.48;76.66;98814.16;4486197;32;20781;-66
2023/05/28 04:20:32;;;;;;;5.15;2.20;;;;;;;13.52;76.73;98815.50;4486272;31;20088;-66
2023/05/28 04:23:00;;;;;;;11.12;3.12;;;;;;;13.60;76.18;98818.19;4485661;32;20509;-66
2023/05/28 04:25:28;;;;;;;5.80;2.15;;;;;;;13.68;76.77;98808.69;4486239;32;20115;-66
2023/05/28 04:27:58;;;;;;;5.37;2.20;;;;;;;13.76;75.87;98812.19;4485668;31;20115;-66
2023/05/28 04:30:25;;;;;;;7.90;2.40;;;;;;;13.84;76.33;98814.03;4485725;31;20429;-66
2023/05/28 04:32:54;;;;;;;7.25;2.28;;;;;;;13.89;75.62;98814.38;4485965;31;20591;-66
2023/05/28 04:35:21;;;;;;;14.73;3.50;;;;;;;14.01;75.89;98818.38;4486005;32;20104;-66
2023/05/28 04:37:50;;;;;;;6.35;2.00;;;;;;;14.05;76.11;98811.00;4485899;31;20118;-66
2023/05/28 04:40:18;;;;;;;7.62;3.08;;;;;;;14.19;75.96;98813.03;4485913;31;20072;-66
2023/05/28 04:42:47;;;;;;;5.97;2.58;;;;;;;14.32;74.13;98812.59;4485814;32;20089;-66
2023/05/28 04:45:14;;;;;;;8.15;2.58;;;;;;;14.38;75.08;98811.09;4485934;31;20105;-66
2023/05/28 04:47:43;;;;;;;12.65;2.80;;;;;;;14.57;73.81;98812.66;4484261;32;20526;-66
2023/05/28 04:50:10;;;;;;;6.55;2.33;;;;;;;14.66;73.53;98818.81;4485355;31;20081;-66
2023/05/28 04:52:37;;;;;;;9.73;2.45;;;;;;;14.70;73.19;98820.09;4485943;31;20379;-66
2023/05/28 04:55:05;;;;;;;5.12;2.30;;;;;;;14.89;73.58;98826.91;4485500;32;20093;-66
2023/05/28 04:57:33;;;;;;;5.28;2.47;;;;;;;14.98;73.31;98822.47;4485620;31;20155;-66
2023/05/28 05:00:00;;;;;;;4.30;2.47;;;;;;;14.93;72.51;98830.88;4485183;31;20084;-66
2023/05/28 05:02:28;;;;;;;5.40;2.30;;;;;;;15.12;72.34;98827.06;4485764;31;20143;-66
2023/05/28 05:04:56;;;;;;;5.93;2.50;;;;;;;15.18;73.04;98828.22;4485630;31;20462;-66
2023/05/28 05:07:24;;;;;;;7.00;2.60;;;;;;;15.36;72.44;98823.59;4485709;31;20111;-66
2023/05/28 05:09:51;;;;;;;4.50;2.42;;;;;;;15.52;71.04;98819.28;4485198;31;20148;-66
2023/05/28 05:12:18;;;;;;;5.72;2.62;;;;;;;15.55;71.91;98829.53;4482159;32;20100;-66
2023/05/28 05:14:46;;;;;;;5.97;2.45;;;;;;;15.63;72.08;98833.97;4469368;32;20138;-66
2023/05/28 05:17:14;;;;;;;5.07;2.33;;;;;;;15.79;71.23;98834.78;4485861;32;20484;-66
2023/05/28 05:19:41;;;;;;;7.62;2.47;;;;;;;15.76;72.50;98835.09;4485238;32;20088;-66
2023/05/28 05:22:08;;;;;;;7.50;2.40;;;;;;;15.85;72.40;98840.38;4485762;32;20786;-66
2023/05/28 05:24:36;;;;;;;8.25;2.87;;;;;;;15.95;71.50;98833.09;4485497;32;20127;-66
2023/05/28 05:27:04;;;;;;;5.40;2.75;;;;;;;16.05;71.35;98831.09;4485556;32;20095;-66
2023/05/28 05:29:32;;;;;;;4.55;2.60;;;;;;;16.30;70.53;98833.63;4485535;32;20115;-66
2023/05/28 05:31:59;;;;;;;5.32;2.42;;;;;;;16.55;69.42;98839.62;4485354;31;20089;-66
2023/05/28 05:34:27;;;;;;;6.72;2.45;;;;;;;16.64;67.64;98845.69;4485245;32;20487;-66
2023/05/28 05:36:54;;;;;;;5.82;2.47;;;;;;;16.87;68.17;98839.62;4485524;32;20118;-66
2023/05/28 05:39:22;;;;;;;5.32;2.37;;;;;;;17.07;67.72;98845.25;4485045;32;20214;-66
2023/05/28 05:41:50;;;;;;;6.85;2.58;;;;;;;17.11;67.29;98836.78;4485524;32;20172;-66
2023/05/28 05:44:17;;;;;;;6.32;2.10;;;;;;;17.28;65.40;98839.31;4484824;31;20571;-66
2023/05/28 05:46:45;;;;;;;5.80;2.40;;;;;;;17.37;66.09;98843.53;4485270;32;20092;-66
2023/05/28 05:49:13;;;;;;;7.07;2.72;;;;;;;17.50;66.29;98835.78;4485276;32;20073;-66
2023/05/28 05:51:41;;;;;;;4.57;2.62;;;;;;;17.41;66.90;98834.22;4485352;31;20120;-66
2023/05/28 05:54:08;;;;;;;5.97;3.05;;;;;;;17.69;63.49;98830.97;4485489;32;20096;-66
2023/05/28 05:56:35;;;;;;;6.90;3.03;;;;;;;17.62;62.34;98832.69;4483936;32;20119;-66
2023/05/28 05:59:02;;;;;;;5.40;2.42;;;;;;;17.55;61.90;98835.25;4484956;32;20092;-66
2023/05/28 06:01:30;;;;;;;5.40;2.20;;;;;;;17.72;64.90;98835.91;4485358;32;20092;-66
2023/05/28 06:03:58;;;;;;;9.75;2.65;;;;;;;17.83;62.70;98848.69;4485231;32;20100;-66
2023/05/28 06:06:27;;;;;;;7.57;2.65;;;;;;;17.84;64.76;98842.41;4485143;31;20188;-66
2023/05/28 06:08:54;;;;;;;9.10;2.65;;;;;;;18.04;64.83;98845.34;4485290;31;20185;-66
2023/05/28 06:11:22;;;;;;;6.53;2.70;;;;;;;18.41;64.56;98850.69;4485202;32;20093;-66
2023/05/28 06:13:50;;;;;;;7.35;2.75;;;;;;;18.26;61.00;98856.88;4472222;32;20116;-66
2023/05/28 06:16:17;;;;;;;8.27;2.60;;;;;;;18.21;61.00;98856.59;4479712;32;20100;-66
2023/05/28 06:18:45;;;;;;;9.10;3.00;;;;;;;18.38;60.39;98853.72;4484953;31;20112;-66
2023/05/28 06:21:12;;;;;;;6.32;2.75;;;;;;;18.57;60.64;98853.13;4484974;31;20112;-66
2023/05/28 06:23:42;;;;;;;12.82;2.55;;;;;;;18.80;61.21;98852.16;4485168;32;20157;-66
2023/05/28 06:26:10;;;;;;;6.15;3.15;;;;;;;19.02;59.80;98850.37;4485104;31;20481;-66
2023/05/28 06:28:37;;;;;;;7.00;2.62;;;;;;;19.14;58.81;98856.00;4483457;32;20114;-66
2023/05/28 06:31:04;;;;;;;5.87;2.70;;;;;;;19.18;58.15;98864.41;4484798;32;20097;-66
2023/05/28 06:33:32;;;;;;;8.65;2.53;;;;;;;19.20;58.76;98857.91;4484021;32;20247;-66
2023/05/28 06:35:59;;;;;;;7.03;2.60;;;;;;;19.32;59.62;98859.03;4484618;32;20111;-66
2023/05/28 06:38:26;;;;;;;8.60;2.95;;;;;;;19.42;57.87;98863.19;4485077;31;20438;-66
2023/05/28 06:40:54;;;;;;;8.20;2.78;;;;;;;19.61;56.83;98865.19;4484331;32;20119;-66
2023/05/28 06:43:21;;;;;;;5.90;2.25;;;;;;;19.90;56.28;98862.56;4484978;31;20382;-66
2023/05/28 06:45:51;;;;;;;6.72;2.70;;;;;;;19.61;57.21;98870.50;4480138;32;20160;-66
2023/05/28 06:48:19;;;;;;;10.13;2.65;;;;;;;19.65;57.93;98863.78;4453479;32;20467;-66
2023/05/28 06:50:46;;;;;;;6.35;2.60;;;;;;;19.95;55.48;98865.44;4451829;32;20113;-66
2023/05/28 06:53:15;;;;;;;7.00;2.50;;;;;;;19.86;50.71;98878.06;4453583;32;20115;-66
2023/05/28 06:55:42;;;;;;;6.68;3.00;;;;;;;19.71;51.39;98862.16;4454089;32;20116;-66
2023/05/28 06:58:11;;;;;;;7.60;2.87;;;;;;;19.68;53.86;98863.41;4455489;32;20085;-66
2023/05/28 07:00:44;;;;;;;10.60;2.30;;;;;;;19.65;56.25;98861.12;4455233;32;20120;-66
2023/05/28 07:03:12;;;;;;;6.90;2.45;;;;;;;19.79;56.18;98858.59;4455300;32;20146;-66
2023/05/28 07:05:39;;;;;;;5.37;2.65;;;;;;;20.00;57.53;98863.00;4455102;32;20523;-66
2023/05/28 07:08:09;;;;;;;6.22;2.95;;;;;;;20.26;51.94;98862.34;4455341;32;20123;-66
2023/05/28 07:10:36;;;;;;;9.07;2.50;;;;;;;20.02;50.06;98866.31;4454727;32;20089;-66
2023/05/28 07:13:04;;;;;;;7.43;2.72;;;;;;;20.22;49.62;98855.75;4463380;32;20127;-66
2023/05/28 07:15:32;;;;;;;5.82;2.62;;;;;;;19.93;51.84;98856.84;4476519;32;20096;-66
2023/05/28 07:18:01;;;;;;;7.87;2.90;;;;;;;20.13;51.85;98856.94;4486393;32;20109;-66
2023/05/28 07:20:28;;;;;;;6.95;2.62;;;;;;;20.11;52.35;98862.47;4486357;31;20101;-66
2023/05/28 07:22:56;;;;;;;14.48;2.80;;;;;;;20.27;50.62;98863.97;4486467;32;20088;-66
2023/05/28 07:25:23;;;;;;;4.70;2.22;;;;;;;20.25;51.12;98860.69;4486368;31;20172;-66
2023/05/28 07:27:50;;;;;;;9.27;2.72;;;;;;;19.97;49.72;98860.72;4486474;32;20431;-66
2023/05/28 07:30:19;;;;;;;19.60;3.05;;;;;;;19.86;49.97;98864.75;4486262;32;20500;-66
2023/05/28 07:32:47;;;;;;;4.68;2.53;;;;;;;19.88;51.78;98859.25;4486374;32;20168;-66
2023/05/28 07:35:14;;;;;;;7.20;3.00;;;;;;;20.14;52.00;98864.72;4486463;32;20118;-66
2023/05/28 07:37:42;;;;;;;6.85;2.62;;;;;;;20.02;50.78;98858.31;4486345;32;20515;-66
2023/05/28 07:40:10;;;;;;;8.05;2.80;;;;;;;19.88;49.91;98860.09;4486372;32;20120;-66
2023/05/28 07:42:38;;;;;;;6.45;2.70;;;;;;;19.92;55.17;98856.00;4486146;31;20104;-66
2023/05/28 07:45:06;;;;;;;6.37;2.65;;;;;;;20.03;50.67;98852.81;4486595;32;20494;-66
2023/05/28 07:47:35;;;;;;;6.62;2.30;;;;;;;20.08;50.86;98854.88;4486320;31;20453;-66
2023/05/28 07:50:06;;;;;;;6.15;2.75;;;;;;;19.87;54.57;98847.00;4486237;31;20116;-66
2023/05/28 07:52:36;;;;;;;4.80;2.70;;;;;;;20.19;51.83;98848.97;4486276;31;20114;-66
2023/05/28 07:55:03;;;;;;;6.25;2.70;;;;;;;20.38;51.69;98851.94;4486198;31;20446;-66
2023/05/28 07:57:31;;;;;;;6.85;2.85;;;;;;;20.49;55.03;98848.72;4486215;32;20506;-66
2023/05/28 08:00:00;;;;;;;20.35;4.25;;;;;;;20.44;50.81;98850.31;4486103;32;20458;-67
2023/05/28 08:02:28;;;;;;;10.63;2.92;;;;;;;20.54;53.17;98850.78;4486146;31;20133;-66
2023/05/28 08:04:56;;;;;;;7.57;3.15;;;;;;;20.74;51.26;98849.03;4486015;32;20163;-66
2023/05/28 08:07:23;;;;;;;12.15;3.55;;;;;;;20.55;50.45;98855.09;4484241;32;20470;-66
2023/05/28 08:09:50;;;;;;;5.82;3.15;;;;;;;20.56;50.46;98854.06;4486093;32;20126;-66
2023/05/28 08:12:18;;;;;;;5.50;2.90;;;;;;;20.55;52.75;98855.09;4482739;31;20101;-66
2023/05/28 08:14:45;;;;;;;9.70;2.78;;;;;;;20.32;51.95;98850.91;4471003;32;20157;-66
2023/05/28 08:17:12;;;;;;;5.72;2.42;;;;;;;20.61;49.99;98856.13;4486057;32;20092;-66
2023/05/28 08:19:41;;;;;;;4.55;2.85;;;;;;;20.68;52.37;98849.84;4485970;32;20100;-66
2023/05/28 08:22:17;;;;;;;5.60;2.90;;;;;;;20.92;51.33;98851.13;4486123;32;20457;-66
2023/05/28 08:24:44;;;;;;;9.65;3.17;;;;;;;20.80;51.64;98843.91;4485947;31;20088;-66
2023/05/28 08:27:12;;;;;;;6.95;3.00;;;;;;;20.86;50.82;98845.75;4486090;32;20536;-66
2023/05/28 08:29:39;;;;;;;10.70;3.00;;;;;;;21.17;53.14;98844.38;4485833;32;20152;-66
2023/05/28 08:32:07;;;;;;;5.80;3.08;;;;;;;21.04;49.56;98843.31;4485849;31;20097;-66
2023/05/28 08:34:36;;;;;;;9.25;3.20;;;;;;;20.94;50.41;98845.59;4486072;32;20096;-66
2023/05/28 08:37:04;;;;;;;8.82;3.37;;;;;;;20.89;49.38;98851.53;4485916;31;20104;-66
2023/05/28 08:39:31;;;;;;;6.20;2.97;;;;;;;20.78;50.41;98843.31;4486083;31;20158;-66
2023/05/28 08:41:59;;;;;;;6.28;2.90;;;;;;;21.08;51.43;98839.25;4485833;31;20797;-66
2023/05/28 08:44:26;;;;;;;8.00;2.87;;;;;;;21.41;54.78;98838.44;4484513;32;20104;-66
2023/05/28 08:46:55;;;;;;;7.25;2.85;;;;;;;21.38;50.54;98841.50;4485497;32;20491;-66
2023/05/28 08:49:34;;;;;;;10.77;3.30;;;;;;;21.44;50.50;98839.88;4485832;31;20119;-66
2023/05/28 08:52:02;;;;;;;5.60;2.78;;;;;;;21.20;49.90;98836.00;4485801;31;20477;-66
2023/05/28 08:54:32;;;;;;;5.37;3.20;;;;;;;20.98;50.75;98832.69;4484666;32;20437;-66
2023/05/28 08:57:00;;;;;;;7.57;2.70;;;;;;;21.05;49.86;98829.00;4484458;32;20088;-66
2023/05/28 08:59:28;;;;;;;6.12;2.50;;;;;;;21.26;50.01;98832.50;4485740;31;20447;-66
2023/05/28 09:01:55;;;;;;;6.78;2.95;;;;;;;21.43;51.57;98832.91;4485797;31;20193;-66
2023/05/28 09:04:23;;;;;;;6.25;2.92;;;;;;;21.33;50.86;98833.31;4485870;31;20119;-66
2023/05/28 09:06:53;;;;;;;8.48;2.83;;;;;;;21.37;49.47;98826.53;4485602;31;20119;-66
2023/05/28 09:09:33;;;;;;;7.43;2.78;;;;;;;21.62;49.63;98817.97;4485424;31;20571;-66
2023/05/28 09:12:05;;;;;;;5.87;2.55;;;;;;;21.38;48.81;98817.53;4484171;32;20099;-66
2023/05/28 09:14:39;;;;;;;6.10;2.90;;;;;;;21.76;50.47;98819.56;4470095;32;20458;-66
2023/05/28 09:17:13;;;;;;;6.03;2.90;;;;;;;21.78;52.87;98814.81;4454074;32;20548;-66
2023/05/28 09:19:51;;;;;;;14.43;2.97;;;;;;;21.63;51.23;98814.25;4453714;32;20097;-67
2023/05/28 09:22:19;;;;;;;5.37;2.58;;;;;;;21.83;48.86;98808.06;4454483;32;20202;-67
2023/05/28 09:24:50;;;;;;;8.02;3.25;;;;;;;21.76;48.37;98811.56;4453005;32;20157;-67
2023/05/28 09:27:19;;;;;;;7.20;2.60;;;;;;;21.89;49.45;98815.22;4452946;32;20114;-66
2023/05/28 09:29:47;;;;;;;9.00;2.60;;;;;;;21.87;46.84;98815.41;4454202;32;20097;-66
2023/05/28 09:32:22;;;;;;;5.15;2.75;;;;;;;21.90;47.79;98815.00;4454201;32;20451;-66
2023/05/28 09:34:52;;;;;;;8.52;3.00;;;;;;;22.17;47.89;98817.59;4454036;32;20457;-66
2023/05/28 09:37:20;;;;;;;8.13;2.70;;;;;;;22.23;47.33;98814.06;4454210;32;20479;-66
2023/05/28 09:39:47;;;;;;;4.93;2.50;;;;;;;22.41;45.76;98807.25;4454350;32;20348;-66
2023/05/28 09:42:15;;;;;;;9.07;3.28;;;;;;;22.68;45.38;98803.41;4453291;32;20544;-66
2023/05/28 09:44:43;;;;;;;8.95;4.05;;;;;;;22.72;46.07;98802.97;4454209;32;20102;-66
2023/05/28 09:47:17;;;;;;;13.43;5.05;;;;;;;22.66;45.03;98802.81;4454164;32;20103;-66
2023/05/28 09:49:46;;;;;;;7.20;3.03;;;;;;;22.12;43.52;98799.56;4453828;32;20096;-66
2023/05/28 09:52:18;;;;;;;6.75;3.22;;;;;;;21.99;46.64;98802.25;4453990;32;20156;-66
2023/05/28 09:54:53;;;;;;;5.32;2.37;;;;;;;22.14;45.33;98800.16;4454006;32;20090;-66
2023/05/28 09:57:27;;;;;;;7.20;2.75;;;;;;;22.19;45.53;98804.03;4454133;32;20140;-66
2023/05/28 09:59:55;;;;;;;4.18;2.45;;;;;;;22.39;45.07;98799.47;4451036;32;80155;-66
2023/05/28 10:03:02;;;;;;;4.72;2.90;;;;;;;22.58;44.96;98794.22;4454000;32;20161;-66
2023/05/28 10:06:04;;;;;;;6.18;2.58;;;;;;;22.56;44.27;98793.59;4451527;32;20085;-66
2023/05/28 10:08:37;;;;;;;6.57;2.90;;;;;;;22.58;42.95;98797.72;4453783;32;20085;-66
2023/05/28 10:11:15;;;;;;;7.03;3.22;;;;;;;22.63;42.21;98791.72;4453764;32;20144;-66
2023/05/28 10:13:43;;;;;;;11.88;3.58;;;;;;;22.74;43.71;98788.38;4465943;32;20387;-66
2023/05/28 10:16:10;;;;;;;4.43;2.45;;;;;;;22.71;40.25;98788.81;4458489;32;20627;-66
2023/05/28 10:18:38;;;;;;;9.40;2.83;;;;;;;22.75;39.03;98784.66;4453635;32;20097;-66
2023/05/28 10:21:09;;;;;;;5.53;2.70;;;;;;;22.93;41.02;98791.13;4452475;32;20171;-66
2023/05/28 10:23:37;;;;;;;14.32;3.10;;;;;;;23.06;40.86;98779.50;4453603;32;20115;-66
2023/05/28 10:26:04;;;;;;;16.40;5.12;;;;;;;23.17;42.17;98785.00;4452560;32;20115;-66
2023/05/28 10:28:31;;;;;;;8.15;3.25;;;;;;;23.19;42.76;98774.91;4452269;32;20093;-66
2023/05/28 10:31:06;;;;;;;3.95;2.42;;;;;;;22.88;42.11;98783.75;4453438;32;20131;-66
2023/05/28 10:33:41;;;;;;;6.68;3.10;;;;;;;22.94;40.56;98769.53;4453472;32;20085;-66
2023/05/28 10:36:13;;;;;;;4.78;2.60;;;;;;;23.10;42.28;98768.19;4453557;32;20089;-66
2023/05/28 10:39:02;;;;;;;8.32;3.00;;;;;;;23.25;40.85;98769.72;4453425;32;20108;-66
2023/05/28 10:41:32;;;;;;;8.38;2.80;;;;;;;23.16;39.78;98769.97;4452287;32;20101;-66
2023/05/28 10:44:07;;;;;;;6.05;2.70;;;;;;;23.68;41.63;98766.19;4453616;32;20089;-66
2023/05/28 10:46:48;;;;;;;6.30;2.72;;;;;;;23.54;38.28;98765.50;4453432;32;20089;-66
2023/05/28 10:49:54;;;;;;;27.33;3.83;;;;;;;23.59;38.71;98763.00;4451494;32;20111;-66
2023/05/28 10:53:12;;;;;;;8.15;3.10;;;;;;;23.67;40.23;98760.03;4453295;32;20089;-66
2023/05/28 10:55:49;;;;;;;6.50;2.53;;;;;;;23.60;38.25;98753.94;4452153;32;20455;-66
2023/05/28 10:58:28;;;;;;;6.55;2.70;;;;;;;23.79;38.64;98761.97;4453571;32;20132;-66
2023/05/28 11:01:11;;;;;;;5.32;2.53;;;;;;;23.85;39.36;98755.75;4453128;32;20103;-66
2023/05/28 11:03:42;;;;;;;;;;;;;;;23.54;38.10;98761.00;4453446;32;20149;-66
2023/05/28 11:06:11;;;;;;;7.40;3.00;;;;;;;23.69;40.14;98757.13;4453532;32;19980;-66
2023/05/28 11:08:41;;;;;;;5.75;3.00;;;;;;;23.32;39.42;98757.94;4453454;32;20204;-67
2023/05/28 11:11:11;;;;;;;7.87;3.12;;;;;;;23.62;39.72;98754.53;4453164;32;20086;-66
2023/05/28 11:13:45;;;;;;;5.85;2.60;;;;;;;23.46;39.80;98753.25;4465156;32;20127;-66
2023/05/28 11:16:15;;;;;;;6.97;2.75;;;;;;;23.58;40.35;98741.84;4478784;32;20099;-66
2023/05/28 11:19:05;;;;;;;11.50;3.42;;;;;;;23.98;42.31;98744.91;4484092;31;20084;-66
2023/05/28 11:21:32;;;;;;;5.50;2.83;;;;;;;24.06;40.39;98735.75;4484639;31;20077;-66
2023/05/28 11:24:02;;;;;;;7.55;3.20;;;;;;;23.73;39.66;98747.62;4484337;31;20115;-66
2023/05/28 11:26:30;;;;;;;7.60;2.72;;;;;;;23.76;40.07;98736.47;4484273;31;20088;-66
2023/05/28 11:28:58;;;;;;;5.68;2.83;;;;;;;23.77;40.04;98737.28;4483939;31;20130;-66
2023/05/28 11:31:26;;;;;;;7.55;2.87;;;;;;;23.48;41.54;98726.28;4482887;32;20088;-66
2023/05/28 11:33:54;;;;;;;8.02;2.85;;;;;;;24.07;42.83;98729.34;4483948;31;20097;-66
2023/05/28 11:36:22;;;;;;;5.30;2.87;;;;;;;24.12;40.30;98721.47;4484040;31;20587;-66
2023/05/28 11:39:10;;;;;;;7.57;3.03;;;;;;;24.06;39.21;98717.00;4483987;32;20092;-66
2023/05/28 11:41:37;;;;;;;9.82;2.85;;;;;;;24.16;40.25;98709.22;4484896;31;20084;-66